Arkansas Post National Memor, Arkansas
Current Conditions -  °F | °C
As of 2:53 AM on Saturday 20 Dec 2014 (Local Time) from KPBF Reporting Station
Light Snow Light Snow  
Wind Chill: 33°   Ceiling: Unl
Heat Index: 38°   Visibility: 7mi
Dew Point: 35°   Wind: 6mph
Humidity: 89%   Direction: 10°N
Pressure: 30.23"   Gusts: NA
Location:  34.1564°N, 91.3915°W
Report Text: KPBF 200853Z AUTO 01005KT 7SM -SN SCT008 03/02 A3023 RMK AO2 SNB28 SLP238 P0000 60000 T00330017 55000
Loading
Personal Weather Stations






























Interactive Weather Map New forecast layout! Learn more

10-Day Weather Forecast

Advertisements
Track Severe Weather on mobile